Time;durP1;ratioP1;P1;durP2;ratioP2;P2;SDS_P1;SDS_P2;PMS_P1;PMS_P2;Temp;Humidity;BMP_temperature;BMP_pressure;BME280_temperature;BME280_humidity;BME280_pressure;Samples;Min_cycle;Max_cycle;Signal;HPM_P1;HPM_P2
2023/10/11 00:01:10;;;;;;;7.60;4.43;;;19.90;99.90;;;;;;10053519;28;20041;-73
2023/10/11 00:06:05;;;;;;;11.20;4.25;;;19.80;99.90;;;;;;10052240;28;20061;-72
2023/10/11 00:10:58;;;;;;;10.95;4.78;;;19.80;99.90;;;;;;10036546;28;20053;-72
2023/10/11 00:15:50;;;;;;;7.32;3.47;;;19.80;99.90;;;;;;10046476;28;20038;-73
2023/10/11 00:25:31;;;;;;;10.35;4.03;;;19.70;99.90;;;;;;10038222;28;20112;-72
2023/10/11 00:30:22;;;;;;;8.90;4.63;;;19.70;99.90;;;;;;10059530;28;20427;-72
2023/10/11 00:35:20;;;;;;;7.80;4.10;;;19.60;99.90;;;;;;10057074;28;20057;-72
2023/10/11 00:40:14;;;;;;;9.30;3.45;;;19.60;99.90;;;;;;10046089;28;20063;-72
2023/10/11 00:45:08;;;;;;;10.03;4.17;;;19.50;99.90;;;;;;10050230;28;20083;-72
2023/10/11 00:49:58;;;;;;;9.32;4.22;;;19.50;99.90;;;;;;10038039;28;20029;-72
2023/10/11 00:54:49;;;;;;;14.52;5.00;;;19.50;99.90;;;;;;10052708;28;20099;-72
2023/10/11 00:59:41;;;;;;;7.53;3.42;;;19.50;99.90;;;;;;10042643;28;20046;-72
2023/10/11 01:04:37;;;;;;;6.80;3.80;;;19.30;99.90;;;;;;10050256;28;20025;-73
2023/10/11 01:09:29;;;;;;;12.02;3.85;;;19.20;99.90;;;;;;10037788;28;20048;-72
2023/10/11 01:14:19;;;;;;;13.05;3.72;;;19.20;99.90;;;;;;10047081;28;20452;-73
2023/10/11 01:19:16;;;;;;;9.27;4.40;;;19.20;99.90;;;;;;10045645;28;20132;-73
2023/10/11 01:24:09;;;;;;;9.77;4.68;;;19.10;99.90;;;;;;10041137;28;20396;-73
2023/10/11 01:29:00;;;;;;;14.88;4.80;;;19.10;99.90;;;;;;10044004;28;20051;-73
2023/10/11 01:33:52;;;;;;;8.50;4.00;;;19.10;99.90;;;;;;10046921;28;20072;-73
2023/10/11 01:38:46;;;;;;;5.95;3.33;;;19.10;99.90;;;;;;10037200;28;20451;-72
2023/10/11 01:43:37;;;;;;;12.30;5.22;;;19.00;99.90;;;;;;10044835;28;20442;-72
2023/10/11 01:48:27;;;;;;;8.15;4.28;;;19.00;99.90;;;;;;10039147;28;20041;-72
2023/10/11 01:53:18;;;;;;;7.78;3.58;;;19.00;99.90;;;;;;10051260;28;20087;-72
2023/10/11 01:58:12;;;;;;;8.50;3.75;;;18.90;99.90;;;;;;10045630;28;20037;-73
2023/10/11 02:03:04;;;;;;;9.52;5.00;;;18.90;99.90;;;;;;10035266;28;20026;-72
2023/10/11 02:07:55;;;;;;;8.38;3.92;;;18.80;99.90;;;;;;10042227;28;20136;-73
2023/10/11 02:12:45;;;;;;;8.00;4.07;;;18.60;99.90;;;;;;10035336;28;20029;-73
2023/10/11 02:17:39;;;;;;;9.48;4.13;;;18.70;99.90;;;;;;10036247;28;20034;-72
2023/10/11 02:22:32;;;;;;;7.25;3.38;;;18.70;99.90;;;;;;10044158;28;20034;-72
2023/10/11 02:27:23;;;;;;;10.57;4.30;;;18.60;99.90;;;;;;10031363;28;20033;-73
2023/10/11 02:32:13;;;;;;;7.75;3.72;;;18.60;99.90;;;;;;10040249;28;20037;-72
2023/10/11 02:37:10;;;;;;;7.75;3.80;;;18.50;99.90;;;;;;10045877;28;20433;-72
2023/10/11 02:42:01;;;;;;;7.28;3.92;;;18.50;99.90;;;;;;10048167;28;20048;-72
2023/10/11 02:46:53;;;;;;;8.45;4.43;;;18.40;99.90;;;;;;10039289;28;20025;-72
2023/10/11 02:51:52;;;;;;;7.63;3.15;;;18.40;99.90;;;;;;10032849;28;20033;-72
2023/10/11 02:56:48;;;;;;;6.10;3.50;;;18.30;99.90;;;;;;10045695;28;20030;-72
2023/10/11 03:01:39;;;;;;;8.45;3.75;;;18.20;99.90;;;;;;10029333;28;20041;-73
2023/10/11 03:06:35;;;;;;;7.75;3.65;;;18.30;99.90;;;;;;10050143;28;20021;-73
2023/10/11 03:11:29;;;;;;;8.80;3.40;;;18.20;99.90;;;;;;10030606;28;20045;-72
2023/10/11 03:16:23;;;;;;;10.03;3.57;;;18.20;99.90;;;;;;10039701;28;20033;-72
2023/10/11 03:21:21;;;;;;;9.95;4.65;;;18.20;99.90;;;;;;10037141;28;20088;-73
2023/10/11 03:26:22;;;;;;;8.23;3.95;;;18.20;99.90;;;;;;10035226;28;20080;-73
2023/10/11 03:31:13;;;;;;;5.93;3.20;;;18.10;99.90;;;;;;10040966;28;20121;-73
2023/10/11 03:36:05;;;;;;;11.73;4.47;;;18.10;99.90;;;;;;10038159;28;20404;-72
2023/10/11 03:41:07;;;;;;;10.70;3.85;;;18.00;99.90;;;;;;10052647;28;20075;-73
2023/10/11 03:46:01;;;;;;;9.65;4.63;;;18.00;99.90;;;;;;10041005;28;20129;-73
2023/10/11 03:50:52;;;;;;;7.43;4.00;;;17.90;99.90;;;;;;10040128;28;20044;-72
2023/10/11 03:55:47;;;;;;;6.40;3.55;;;17.90;99.90;;;;;;10037649;28;20391;-73
2023/10/11 04:00:46;;;;;;;9.37;3.83;;;17.70;99.90;;;;;;10036964;28;20144;-72
2023/10/11 04:05:40;;;;;;;7.88;3.95;;;17.70;99.90;;;;;;10044653;28;20277;-72
2023/10/11 04:10:43;;;;;;;10.63;3.92;;;17.60;99.90;;;;;;10036896;28;20042;-72
2023/10/11 04:15:33;;;;;;;9.90;3.47;;;17.60;99.90;;;;;;10047379;28;20486;-72
2023/10/11 04:20:33;;;;;;;11.25;4.18;;;17.60;99.90;;;;;;10052248;28;20038;-72
2023/10/11 04:25:23;;;;;;;9.93;4.95;;;17.50;99.90;;;;;;10039627;28;20026;-73
2023/10/11 04:30:26;;;;;;;6.10;3.95;;;17.50;99.90;;;;;;10035826;28;20025;-72
2023/10/11 04:35:21;;;;;;;9.30;4.45;;;17.50;99.90;;;;;;10030992;28;20034;-74
2023/10/11 04:40:58;;;;;;;9.10;4.40;;;17.50;99.90;;;;;;10050407;28;20483;-72
2023/10/11 04:45:30;;;;;;;7.88;3.97;;;17.50;99.90;;;;;;10042932;28;20396;-72
2023/10/11 04:50:23;;;;;;;7.60;3.83;;;17.40;99.90;;;;;;10033450;28;20061;-73
2023/10/11 04:55:15;;;;;;;10.98;4.43;;;17.30;99.90;;;;;;10040929;28;20056;-73
2023/10/11 05:00:09;;;;;;;8.75;4.10;;;17.30;99.90;;;;;;10043285;28;20514;-72
2023/10/11 05:05:00;;;;;;;10.55;3.75;;;17.30;99.90;;;;;;10056047;28;20040;-72
2023/10/11 05:09:59;;;;;;;8.05;4.53;;;17.40;99.90;;;;;;10032238;28;20053;-72
2023/10/11 05:19:55;;;;;;;7.43;3.67;;;17.30;99.90;;;;;;10047336;28;20635;-72
2023/10/11 05:25:12;;;;;;;10.23;4.00;;;17.30;99.90;;;;;;10043732;28;20570;-72
2023/10/11 05:30:28;;;;;;;7.57;4.15;;;17.30;99.90;;;;;;10050160;28;20113;-73
2023/10/11 05:35:24;;;;;;;7.90;3.75;;;17.30;99.90;;;;;;10046895;28;20022;-72
2023/10/11 05:50:50;;;;;;;11.07;4.47;;;17.20;99.90;;;;;;10027934;28;20380;-73
2023/10/11 05:55:41;;;;;;;;;;;17.20;99.90;;;;;;10036785;28;20504;-72
2023/10/11 06:00:38;;;;;;;10.68;3.85;;;17.20;99.90;;;;;;10041227;28;20085;-74
2023/10/11 06:05:28;;;;;;;7.03;3.55;;;17.20;99.90;;;;;;10043193;28;20022;-73
2023/10/11 06:10:19;;;;;;;6.45;3.97;;;17.20;99.90;;;;;;10036145;28;20141;-73
2023/10/11 06:15:16;;;;;;;10.27;4.88;;;17.10;99.90;;;;;;10053128;28;20032;-73
2023/10/11 06:20:23;;;;;;;6.95;3.70;;;17.10;99.90;;;;;;10049183;28;20470;-72
2023/10/11 06:25:17;;;;;;;11.52;4.63;;;17.10;99.90;;;;;;10036186;28;20160;-72
2023/10/11 06:30:17;;;;;;;11.38;4.00;;;17.00;99.90;;;;;;10046292;28;20037;-74
2023/10/11 06:35:08;;;;;;;11.05;5.55;;;17.10;99.90;;;;;;10042864;28;20558;-72
2023/10/11 06:44:59;;;;;;;12.70;4.85;;;17.00;99.90;;;;;;10049554;28;20403;-74
2023/10/11 06:49:55;;;;;;;9.95;5.72;;;17.00;99.90;;;;;;10033690;28;20037;-76
2023/10/11 06:54:47;;;;;;;;;;;17.20;99.90;;;;;;10030583;28;20048;-75
2023/10/11 06:59:41;;;;;;;14.93;6.07;;;17.10;99.90;;;;;;10043930;28;19921;-77
2023/10/11 07:04:36;;;;;;;8.30;4.00;;;17.00;99.90;;;;;;10044746;28;20028;-75
2023/10/11 07:09:29;;;;;;;8.65;3.67;;;17.10;99.90;;;;;;10035636;28;20082;-74
2023/10/11 07:14:25;;;;;;;6.22;3.17;;;17.10;99.90;;;;;;10038856;28;20105;-73
2023/10/11 07:19:19;;;;;;;12.48;3.97;;;17.20;99.90;;;;;;10048861;28;20066;-73
2023/10/11 07:29:21;;;;;;;6.70;3.80;;;17.40;99.90;;;;;;10048669;28;20164;-74
2023/10/11 07:34:16;;;;;;;7.97;3.50;;;17.50;99.90;;;;;;10042334;28;20037;-73
2023/10/11 07:39:46;;;;;;;8.38;3.22;;;17.60;99.90;;;;;;10043359;28;20037;-77
2023/10/11 07:44:28;;;;;;;11.35;4.00;;;17.70;99.90;;;;;;10044135;28;20038;-73
2023/10/11 07:49:22;;;;;;;7.85;3.92;;;17.60;99.90;;;;;;10050532;28;20038;-73
2023/10/11 07:54:32;;;;;;;10.23;4.18;;;17.70;99.90;;;;;;10049801;28;20025;-74
2023/10/11 07:59:26;;;;;;;6.90;3.40;;;17.80;99.90;;;;;;10051313;28;20681;-74
2023/10/11 08:04:22;;;;;;;7.80;3.72;;;17.80;99.90;;;;;;10055231;28;20075;-75
2023/10/11 08:09:19;;;;;;;8.65;3.10;;;17.90;99.90;;;;;;10034013;28;20621;-74
2023/10/11 08:14:15;;;;;;;10.65;4.68;;;17.90;99.90;;;;;;10054071;28;20087;-75
2023/10/11 08:19:06;;;;;;;5.35;3.40;;;18.00;99.90;;;;;;10054197;28;20030;-75
2023/10/11 08:23:57;;;;;;;9.52;3.78;;;18.10;99.90;;;;;;10040513;28;20462;-76
2023/10/11 08:28:48;;;;;;;9.77;3.72;;;18.20;99.90;;;;;;10047164;28;20072;-74
2023/10/11 08:33:39;;;;;;;8.43;3.92;;;18.10;99.90;;;;;;10048036;28;20167;-75
2023/10/11 08:38:32;;;;;;;8.40;3.45;;;18.20;99.90;;;;;;10050407;28;20057;-76
2023/10/11 08:43:22;;;;;;;6.90;3.63;;;18.20;99.90;;;;;;10059853;28;20060;-75
2023/10/11 08:48:13;;;;;;;5.40;2.70;;;18.30;99.90;;;;;;10052077;28;20072;-74
2023/10/11 08:53:08;;;;;;;8.60;3.38;;;18.40;99.90;;;;;;10045531;28;20037;-75
2023/10/11 08:57:59;;;;;;;5.67;3.20;;;18.50;99.90;;;;;;10050217;28;20037;-74
2023/10/11 09:02:51;;;;;;;13.75;3.47;;;18.50;99.90;;;;;;10044131;28;20037;-75
2023/10/11 09:07:45;;;;;;;6.68;2.70;;;18.60;99.90;;;;;;10046355;28;20053;-74
2023/10/11 09:12:48;;;;;;;6.65;3.25;;;18.70;99.90;;;;;;10043753;28;20038;-74
2023/10/11 09:17:39;;;;;;;5.07;3.13;;;18.70;99.90;;;;;;10052211;28;20025;-73
2023/10/11 09:22:46;;;;;;;5.40;2.97;;;18.70;99.90;;;;;;10041389;28;20045;-74
2023/10/11 09:27:48;;;;;;;7.68;3.95;;;18.80;99.90;;;;;;10054162;28;20048;-75
2023/10/11 09:32:39;;;;;;;7.72;2.90;;;18.90;99.90;;;;;;10050309;28;20095;-80
2023/10/11 09:37:33;;;;;;;6.90;2.58;;;18.90;99.90;;;;;;10045488;28;20079;-79
2023/10/11 09:42:29;;;;;;;8.88;3.08;;;19.00;99.90;;;;;;10059576;28;20040;-78
2023/10/11 09:47:20;;;;;;;7.65;3.58;;;19.00;99.90;;;;;;10052789;28;20021;-78
2023/10/11 09:52:13;;;;;;;6.07;4.07;;;19.10;99.90;;;;;;10043560;28;20030;-81
2023/10/11 09:57:32;;;;;;;9.93;3.17;;;19.10;99.90;;;;;;10045697;28;20033;-75
2023/10/11 10:02:37;;;;;;;9.88;2.67;;;19.30;99.90;;;;;;10051406;28;20390;-76
2023/10/11 10:07:49;;;;;;;9.30;3.05;;;19.30;99.90;;;;;;10055066;28;20040;-74
2023/10/11 10:12:43;;;;;;;8.75;2.60;;;19.40;99.90;;;;;;10047358;28;20064;-74
2023/10/11 10:17:35;;;;;;;8.38;4.20;;;19.40;99.90;;;;;;10057650;28;20490;-74
2023/10/11 10:22:32;;;;;;;7.95;2.83;;;19.40;99.90;;;;;;10052145;28;20045;-73
2023/10/11 10:27:35;;;;;;;7.25;2.78;;;19.40;99.90;;;;;;10052781;28;20021;-73
2023/10/11 10:32:27;;;;;;;6.15;2.92;;;19.40;99.90;;;;;;10049695;28;20487;-74
2023/10/11 10:37:45;;;;;;;10.57;2.90;;;19.60;99.90;;;;;;10044584;28;20032;-72
2023/10/11 10:42:36;;;;;;;14.65;3.50;;;19.70;99.90;;;;;;10048655;28;20529;-72
2023/10/11 10:47:31;;;;;;;5.25;3.10;;;19.80;99.90;;;;;;10043108;28;20033;-72
2023/10/11 10:52:30;;;;;;;6.40;3.20;;;19.90;99.90;;;;;;10043080;28;20043;-72
2023/10/11 10:57:24;;;;;;;6.40;3.13;;;19.90;99.90;;;;;;10034322;28;20039;-71
2023/10/11 11:02:19;;;;;;;8.20;2.80;;;20.00;99.90;;;;;;10063898;28;20063;-72
2023/10/11 11:07:22;;;;;;;7.45;2.60;;;20.10;99.90;;;;;;10042518;28;20109;-72
2023/10/11 11:12:14;;;;;;;5.18;2.97;;;20.20;99.90;;;;;;10048696;28;20492;-72
2023/10/11 11:17:09;;;;;;;7.72;3.42;;;20.20;99.90;;;;;;10057109;28;20080;-75
2023/10/11 11:22:15;;;;;;;6.40;3.63;;;20.20;99.90;;;;;;10056242;28;20087;-73
2023/10/11 11:27:30;;;;;;;8.20;4.28;;;20.20;99.90;;;;;;10060130;28;20030;-71
2023/10/11 11:32:41;;;;;;;7.60;3.10;;;20.50;99.90;;;;;;10071278;28;20060;-71
2023/10/11 11:37:34;;;;;;;5.85;2.97;;;20.60;99.90;;;;;;10072670;28;20275;-72
2023/10/11 11:42:25;;;;;;;9.90;2.63;;;20.70;99.90;;;;;;10063808;28;20450;-72
2023/10/11 11:47:21;;;;;;;8.73;3.67;;;20.70;99.90;;;;;;10080436;28;20079;-72
2023/10/11 11:52:16;;;;;;;7.50;4.28;;;20.70;99.90;;;;;;10047014;28;20124;-72
2023/10/11 11:57:07;;;;;;;9.70;2.80;;;20.70;99.90;;;;;;10052431;28;20033;-73
2023/10/11 12:02:02;;;;;;;7.70;2.72;;;20.80;99.90;;;;;;10044768;28;20030;-71
2023/10/11 12:06:52;;;;;;;4.43;2.60;;;20.80;99.90;;;;;;10052975;28;20044;-72
2023/10/11 12:11:45;;;;;;;5.65;2.42;;;21.00;99.90;;;;;;10042042;28;20072;-72
2023/10/11 12:16:42;;;;;;;8.82;3.47;;;21.20;99.90;;;;;;10049072;28;20033;-72
2023/10/11 12:21:33;;;;;;;7.78;2.63;;;21.20;99.90;;;;;;10048210;28;20053;-72
2023/10/11 12:26:26;;;;;;;7.60;2.85;;;21.50;99.90;;;;;;10036483;28;20040;-73
2023/10/11 12:31:27;;;;;;;8.30;2.30;;;21.50;99.90;;;;;;10041979;28;20080;-72
2023/10/11 12:36:20;;;;;;;8.93;2.55;;;21.50;99.90;;;;;;10049686;28;20021;-71
2023/10/11 12:41:15;;;;;;;7.50;3.50;;;21.80;99.90;;;;;;10071913;23;20249;-76
2023/10/11 12:46:05;;;;;;;4.68;2.47;;;22.00;99.90;;;;;;10062241;28;20045;-78
2023/10/11 12:51:00;;;;;;;6.80;2.83;;;22.10;99.90;;;;;;10068288;28;20065;-77
2023/10/11 12:55:51;;;;;;;5.45;2.60;;;22.20;99.90;;;;;;10064333;28;20095;-74
2023/10/11 13:00:51;;;;;;;5.05;2.75;;;22.20;99.90;;;;;;10075994;28;20467;-75
2023/10/11 13:05:44;;;;;;;5.82;2.70;;;22.30;99.90;;;;;;10068423;28;20030;-76
2023/10/11 13:10:35;;;;;;;4.85;2.38;;;22.40;99.90;;;;;;10076486;28;20035;-76
2023/10/11 13:15:27;;;;;;;7.97;2.25;;;22.60;99.90;;;;;;10056706;28;20439;-72
2023/10/11 13:20:18;;;;;;;3.90;2.17;;;22.60;99.90;;;;;;10065229;28;20028;-74
2023/10/11 13:25:22;;;;;;;5.68;2.42;;;22.70;99.90;;;;;;10067314;28;20036;-71
2023/10/11 13:30:14;;;;;;;10.80;3.17;;;22.80;99.90;;;;;;10056526;28;20033;-76
2023/10/11 13:35:05;;;;;;;6.53;3.13;;;23.00;99.90;;;;;;10071911;28;20778;-78
2023/10/11 13:40:05;;;;;;;8.55;2.97;;;23.10;99.90;;;;;;10066974;28;20056;-77
2023/10/11 13:44:55;;;;;;;7.13;4.18;;;23.30;99.90;;;;;;10071611;28;20036;-77
2023/10/11 13:49:49;;;;;;;5.85;3.20;;;23.50;99.90;;;;;;10077487;28;20515;-75
2023/10/11 13:54:42;;;;;;;8.32;2.85;;;23.60;99.90;;;;;;10085533;28;20076;-71
2023/10/11 13:59:37;;;;;;;5.75;2.50;;;23.70;99.90;;;;;;10086516;28;20044;-72
2023/10/11 14:09:47;;;;;;;4.53;2.70;;;23.90;99.90;;;;;;10217946;27;20371;-76
2023/10/11 14:14:39;;;;;;;6.88;3.05;;;24.00;99.90;;;;;;10184094;28;20450;-79
2023/10/11 14:19:33;;;;;;;4.15;2.22;;;24.20;99.90;;;;;;10176875;28;20055;-76
2023/10/11 14:24:24;;;;;;;9.13;2.67;;;24.40;99.90;;;;;;10197342;28;20038;-71
2023/10/11 14:29:15;;;;;;;6.15;2.95;;;24.60;99.90;;;;;;10175674;28;20409;-74
2023/10/11 14:34:06;;;;;;;5.53;2.92;;;24.80;99.90;;;;;;10174925;28;20032;-76
2023/10/11 14:38:58;;;;;;;8.57;3.47;;;24.90;99.90;;;;;;10166006;28;20093;-75
2023/10/11 14:43:49;;;;;;;9.98;3.75;;;24.90;99.90;;;;;;10170145;28;20017;-77
2023/10/11 14:48:40;;;;;;;4.57;2.30;;;25.10;99.80;;;;;;10168657;28;20506;-77
2023/10/11 14:53:33;;;;;;;6.38;3.03;;;25.30;99.60;;;;;;10178004;28;20028;-77
2023/10/11 14:58:24;;;;;;;7.18;2.58;;;25.30;99.60;;;;;;10184945;28;20047;-72
2023/10/11 15:03:15;;;;;;;6.05;2.67;;;25.40;99.50;;;;;;10154189;28;20051;-73
2023/10/11 15:08:06;;;;;;;7.07;2.85;;;25.60;99.40;;;;;;10158280;28;20055;-75
2023/10/11 15:12:56;;;;;;;5.68;2.83;;;25.60;99.30;;;;;;10142258;28;20090;-72
2023/10/11 15:17:47;;;;;;;7.40;2.92;;;25.80;99.20;;;;;;10131609;28;20033;-70
2023/10/11 15:22:40;;;;;;;5.00;2.60;;;25.80;99.10;;;;;;10119965;28;20033;-74
2023/10/11 15:27:31;;;;;;;5.85;3.45;;;25.90;99.10;;;;;;10095450;28;20144;-73
2023/10/11 15:32:23;;;;;;;8.75;3.97;;;25.80;99.10;;;;;;10123002;28;20128;-74
2023/10/11 15:37:13;;;;;;;7.10;3.10;;;25.80;99.10;;;;;;10120426;28;20123;-72
2023/10/11 15:42:06;;;;;;;5.50;2.88;;;25.90;99.20;;;;;;10114986;28;20100;-75
2023/10/11 15:46:57;;;;;;;6.22;2.70;;;25.80;99.20;;;;;;10100993;28;20041;-72
2023/10/11 15:51:50;;;;;;;4.38;2.55;;;25.80;99.20;;;;;;10131123;28;20501;-75
2023/10/11 15:56:43;;;;;;;5.97;2.95;;;25.80;99.30;;;;;;10109471;28;20401;-72
2023/10/11 16:01:34;;;;;;;14.02;2.92;;;25.80;99.30;;;;;;10104064;28;20099;-73
2023/10/11 16:06:25;;;;;;;16.73;3.88;;;25.80;99.40;;;;;;10101072;28;20160;-72
2023/10/11 16:11:16;;;;;;;7.40;3.97;;;25.60;99.30;;;;;;10090811;28;20489;-71
2023/10/11 16:16:08;;;;;;;7.15;2.88;;;25.60;99.20;;;;;;10118701;28;20037;-70
2023/10/11 16:21:00;;;;;;;7.60;3.15;;;25.60;99.20;;;;;;10105701;28;20429;-73
2023/10/11 16:25:51;;;;;;;6.53;2.60;;;25.50;99.10;;;;;;10120790;28;20489;-75
2023/10/11 16:30:42;;;;;;;6.35;3.25;;;25.40;99.00;;;;;;10126242;28;20115;-73
2023/10/11 16:35:32;;;;;;;6.43;2.95;;;25.50;98.90;;;;;;10118579;28;20033;-74
2023/10/11 16:40:23;;;;;;;6.32;2.72;;;25.50;98.60;;;;;;10118973;28;20020;-71
2023/10/11 16:45:14;;;;;;;5.13;2.38;;;25.50;98.40;;;;;;10112077;28;20051;-73
2023/10/11 16:50:05;;;;;;;5.10;2.60;;;25.40;98.20;;;;;;10094417;28;20518;-74
2023/10/11 16:54:57;;;;;;;10.32;2.97;;;25.40;98.00;;;;;;10116985;28;20081;-74
2023/10/11 16:59:48;;;;;;;9.10;3.45;;;25.40;97.90;;;;;;10122788;28;20024;-72
2023/10/11 17:04:39;;;;;;;7.47;3.75;;;25.30;97.80;;;;;;10122430;28;20039;-75
2023/10/11 17:09:30;;;;;;;10.05;4.00;;;25.30;97.80;;;;;;10131961;28;20045;-72
2023/10/11 17:14:21;;;;;;;9.65;4.00;;;25.20;97.80;;;;;;10122304;28;20033;-75
2023/10/11 17:19:12;;;;;;;13.18;4.38;;;25.10;97.80;;;;;;10107814;28;20498;-73
2023/10/11 17:24:05;;;;;;;11.80;4.70;;;25.10;97.70;;;;;;10110593;28;20459;-73
2023/10/11 17:28:59;;;;;;;10.20;4.95;;;25.00;97.80;;;;;;10125937;28;20036;-75
2023/10/11 17:33:50;;;;;;;;;;;25.00;97.70;;;;;;10119335;28;20490;-76
2023/10/11 17:38:41;;;;;;;9.20;5.32;;;25.00;97.60;;;;;;10087721;28;19913;-72
2023/10/11 17:43:32;;;;;;;12.45;4.22;;;25.00;97.70;;;;;;10096218;28;20035;-74
2023/10/11 17:48:23;;;;;;;7.72;4.15;;;25.00;97.60;;;;;;10107928;28;20055;-73
2023/10/11 17:53:14;;;;;;;8.18;4.82;;;25.00;97.60;;;;;;10105370;28;20026;-74
2023/10/11 17:58:06;;;;;;;9.20;4.40;;;24.90;97.50;;;;;;10111708;28;20031;-77
2023/10/11 18:02:57;;;;;;;8.80;4.00;;;24.90;97.50;;;;;;10119079;28;20036;-75
2023/10/11 18:07:49;;;;;;;5.68;2.95;;;24.90;97.40;;;;;;10136181;28;20163;-74
2023/10/11 18:12:40;;;;;;;9.18;4.78;;;24.80;97.20;;;;;;10162246;28;20029;-73
2023/10/11 18:17:39;;;;;;;7.88;2.90;;;24.80;97.10;;;;;;10152290;28;20037;-73
2023/10/11 18:22:29;;;;;;;6.65;2.42;;;24.80;97.00;;;;;;10158983;28;20032;-73
2023/10/11 18:27:20;;;;;;;6.40;2.40;;;24.80;96.90;;;;;;10153246;28;20036;-74
2023/10/11 18:32:11;;;;;;;7.35;2.85;;;24.80;96.70;;;;;;10164126;28;20032;-75
2023/10/11 18:37:02;;;;;;;6.60;3.42;;;24.80;96.60;;;;;;10170316;28;20128;-74
2023/10/11 18:41:53;;;;;;;5.28;2.72;;;24.80;96.50;;;;;;10158746;28;20036;-72
2023/10/11 18:46:44;;;;;;;7.10;3.08;;;24.70;96.40;;;;;;10163016;28;20032;-78
2023/10/11 18:51:34;;;;;;;5.88;2.28;;;24.70;96.30;;;;;;10148455;28;20020;-74
2023/10/11 18:56:28;;;;;;;9.52;3.33;;;24.60;96.30;;;;;;10168128;28;20028;-80
2023/10/11 19:01:19;;;;;;;5.90;3.50;;;24.60;96.20;;;;;;10170874;28;20042;-73
2023/10/11 19:06:14;;;;;;;8.95;3.63;;;24.60;96.20;;;;;;10154272;28;20048;-77
2023/10/11 19:11:11;;;;;;;6.22;3.63;;;24.60;96.20;;;;;;10136454;28;20091;-73
2023/10/11 19:16:01;;;;;;;6.70;3.53;;;24.50;96.30;;;;;;10105749;28;20502;-74
2023/10/11 19:21:07;;;;;;;6.60;4.47;;;24.40;96.30;;;;;;10094084;28;20040;-71
2023/10/11 19:25:58;;;;;;;8.73;3.85;;;24.40;96.30;;;;;;10101529;28;20025;-74
2023/10/11 19:30:50;;;;;;;10.43;4.45;;;24.30;96.30;;;;;;10104066;28;20139;-72
2023/10/11 19:35:41;;;;;;;9.43;4.32;;;24.20;96.40;;;;;;10101982;28;20637;-74
2023/10/11 19:40:32;;;;;;;14.35;4.85;;;24.20;96.40;;;;;;10120643;28;20155;-75
2023/10/11 19:45:23;;;;;;;13.40;6.78;;;24.20;96.40;;;;;;10126506;28;20127;-73
2023/10/11 19:50:15;;;;;;;14.02;6.03;;;24.10;96.40;;;;;;10114371;28;20059;-71
2023/10/11 19:55:05;;;;;;;13.38;6.65;;;24.10;96.40;;;;;;10127089;28;20025;-71
2023/10/11 19:59:59;;;;;;;16.45;7.55;;;24.00;96.40;;;;;;10115224;28;20434;-71
2023/10/11 20:04:50;;;;;;;19.58;9.35;;;24.00;96.40;;;;;;10126941;28;20098;-73
2023/10/11 20:09:41;;;;;;;12.25;6.00;;;23.90;96.40;;;;;;10116403;28;20878;-73
2023/10/11 20:14:31;;;;;;;13.80;4.90;;;23.80;96.50;;;;;;10125371;28;20424;-73
2023/10/11 20:19:22;;;;;;;8.90;3.40;;;23.80;96.50;;;;;;10127342;28;20028;-74
2023/10/11 20:24:19;;;;;;;7.82;3.65;;;23.70;96.50;;;;;;10126645;28;20115;-73
2023/10/11 20:29:14;;;;;;;10.73;4.07;;;23.70;96.60;;;;;;10112434;28;20041;-72
2023/10/11 20:34:07;;;;;;;7.00;3.05;;;23.60;96.60;;;;;;10119361;28;20406;-71
2023/10/11 20:38:58;;;;;;;9.30;2.53;;;23.50;96.60;;;;;;10098600;28;20024;-72
2023/10/11 20:43:49;;;;;;;7.43;2.60;;;23.50;96.60;;;;;;10126825;28;20036;-73
2023/10/11 20:48:41;;;;;;;5.40;2.95;;;23.60;96.70;;;;;;10111501;28;20067;-72
2023/10/11 20:53:35;;;;;;;6.75;3.30;;;23.60;96.60;;;;;;10112784;28;20029;-73
2023/10/11 20:58:26;;;;;;;6.20;2.85;;;23.50;96.70;;;;;;10114419;28;20082;-73
2023/10/11 21:03:19;;;;;;;8.65;3.13;;;23.40;96.80;;;;;;10114525;28;20478;-71
2023/10/11 21:08:12;;;;;;;8.75;3.00;;;23.30;96.90;;;;;;10133498;28;20041;-72
2023/10/11 21:13:08;;;;;;;5.07;3.15;;;23.30;97.00;;;;;;10107848;28;20110;-74
2023/10/11 21:18:00;;;;;;;6.47;2.95;;;23.20;97.20;;;;;;10115433;28;20028;-74
2023/10/11 21:22:52;;;;;;;7.22;2.83;;;23.10;97.40;;;;;;10128336;28;20493;-73
2023/10/11 21:27:46;;;;;;;5.85;3.05;;;23.10;97.50;;;;;;10122472;28;20040;-72
2023/10/11 21:32:37;;;;;;;6.97;2.83;;;23.00;97.60;;;;;;10099247;28;20386;-70
2023/10/11 21:37:28;;;;;;;7.60;2.80;;;22.90;97.80;;;;;;10107230;28;20035;-72
2023/10/11 21:42:19;;;;;;;7.20;3.05;;;22.90;97.80;;;;;;10113271;28;20160;-72
2023/10/11 21:47:09;;;;;;;8.48;3.10;;;22.90;97.90;;;;;;10093100;28;20179;-73
2023/10/11 21:52:00;;;;;;;12.43;3.80;;;22.90;97.90;;;;;;10118173;28;20070;-74
2023/10/11 21:56:50;;;;;;;6.20;2.80;;;22.90;97.90;;;;;;10115439;28;20032;-72
2023/10/11 22:01:42;;;;;;;6.65;2.90;;;22.90;98.00;;;;;;10094699;28;20021;-71
2023/10/11 22:06:33;;;;;;;5.75;2.90;;;22.90;98.00;;;;;;10115225;28;20198;-71
2023/10/11 22:11:26;;;;;;;6.93;3.05;;;22.90;98.00;;;;;;10110050;28;20146;-73
2023/10/11 22:16:17;;;;;;;7.20;3.25;;;22.80;98.20;;;;;;10113817;28;20040;-73
2023/10/11 22:21:12;;;;;;;3.90;2.83;;;22.80;98.10;;;;;;10113903;28;20040;-74
2023/10/11 22:26:04;;;;;;;4.68;2.75;;;22.80;98.10;;;;;;10102053;28;20044;-74
2023/10/11 22:30:54;;;;;;;11.85;3.45;;;22.80;98.20;;;;;;10104840;28;20178;-74
2023/10/11 22:35:47;;;;;;;6.88;2.92;;;22.80;98.20;;;;;;10121552;28;20509;-74
2023/10/11 22:40:39;;;;;;;5.70;2.40;;;22.60;98.30;;;;;;10125642;28;20028;-73
2023/10/11 22:45:31;;;;;;;6.28;2.50;;;22.60;98.30;;;;;;10114943;28;20033;-72
2023/10/11 22:50:21;;;;;;;8.60;3.40;;;22.60;98.50;;;;;;10117994;28;20122;-73
2023/10/11 22:55:12;;;;;;;3.65;2.80;;;22.50;98.50;;;;;;10130004;28;20077;-74
2023/10/11 23:00:04;;;;;;;5.80;3.47;;;22.40;98.60;;;;;;10130969;28;20028;-75
2023/10/11 23:04:55;;;;;;;8.10;3.15;;;22.40;98.70;;;;;;10125110;28;20135;-74
2023/10/11 23:09:48;;;;;;;9.73;3.35;;;22.30;99.20;;;;;;10132934;28;20479;-73
2023/10/11 23:14:44;;;;;;;7.63;3.40;;;22.30;98.90;;;;;;10128444;28;20143;-74
2023/10/11 23:19:41;;;;;;;6.07;3.35;;;22.30;98.90;;;;;;10126899;28;20138;-74
2023/10/11 23:24:40;;;;;;;7.30;3.13;;;22.30;99.00;;;;;;10131663;28;20055;-75
2023/10/11 23:29:39;;;;;;;4.65;3.00;;;22.20;99.20;;;;;;10135746;28;20032;-74
2023/10/11 23:34:32;;;;;;;8.07;3.10;;;22.20;99.20;;;;;;10128220;28;20490;-72
2023/10/11 23:39:34;;;;;;;8.23;2.63;;;22.10;99.20;;;;;;10130708;28;20029;-73
2023/10/11 23:44:27;;;;;;;6.15;3.22;;;22.10;99.20;;;;;;10107190;28;20032;-74
2023/10/11 23:49:20;;;;;;;7.80;3.08;;;22.10;99.30;;;;;;10113989;28;20173;-74
2023/10/11 23:54:11;;;;;;;7.82;2.65;;;22.10;99.30;;;;;;10110064;28;20115;-74
2023/10/11 23:59:14;;;;;;;6.38;3.00;;;22.10;99.20;;;;;;10134507;28;20486;-74
